createdAt,value
2019-04-06T00:01:05.330Z,36.37
2019-04-06T00:04:09.082Z,34.40
2019-04-06T00:07:12.893Z,34.23
2019-04-06T00:10:17.119Z,34.90
2019-04-06T00:13:20.958Z,34.37
2019-04-06T00:16:24.913Z,33.87
2019-04-06T00:19:28.830Z,32.67
2019-04-06T00:22:32.658Z,32.70
2019-04-06T00:25:44.215Z,30.67
2019-04-06T00:28:41.938Z,29.50
2019-04-06T00:32:03.490Z,28.63
2019-04-06T00:35:07.675Z,31.03
2019-04-06T00:38:11.371Z,30.37
2019-04-06T00:41:15.022Z,29.83
2019-04-06T00:44:18.858Z,27.60
2019-04-06T00:47:22.789Z,28.20
2019-04-06T00:50:26.574Z,27.23
2019-04-06T00:53:30.534Z,26.83
2019-04-06T00:56:34.193Z,27.37
2019-04-06T00:59:37.898Z,27.50
2019-04-06T01:02:41.670Z,26.63
2019-04-06T01:05:46.326Z,24.25
2019-04-06T01:08:50.061Z,24.97
2019-04-06T01:11:54.273Z,24.73
2019-04-06T01:14:58.045Z,23.50
2019-04-06T01:18:02.107Z,22.67
2019-04-06T01:21:06.867Z,23.23
2019-04-06T01:24:10.555Z,22.13
2019-04-06T01:27:14.273Z,20.63
2019-04-06T01:30:18.178Z,21.47
2019-04-06T01:33:22.203Z,22.60
2019-04-06T01:36:25.893Z,22.00
2019-04-06T01:39:29.576Z,21.87
2019-04-06T01:42:33.297Z,21.67
2019-04-06T01:45:37.191Z,22.90
2019-04-06T01:48:40.934Z,22.53
2019-04-06T01:51:44.616Z,20.37
2019-04-06T01:54:48.298Z,24.40
2019-04-06T01:57:52.039Z,24.10
2019-04-06T02:01:13.795Z,22.33
2019-04-06T02:04:17.750Z,23.12
2019-04-06T02:07:21.482Z,21.00
2019-04-06T02:10:25.185Z,22.43
2019-04-06T02:13:28.883Z,19.43
2019-04-06T02:16:32.574Z,21.50
2019-04-06T02:19:36.296Z,19.30
2019-04-06T02:22:39.973Z,21.02
2019-04-06T02:25:43.640Z,22.17
2019-04-06T02:28:47.397Z,22.10
2019-04-06T02:32:03.122Z,20.43
2019-04-06T02:35:32.139Z,20.00
2019-04-06T02:38:55.794Z,22.03
2019-04-06T02:42:06.270Z,21.97
2019-04-06T02:45:10.316Z,22.03
2019-04-06T02:48:14.080Z,23.60
2019-04-06T02:51:17.846Z,22.90
2019-04-06T02:54:21.623Z,23.43
2019-04-06T02:57:25.306Z,22.40
2019-04-06T03:00:29.261Z,21.90
2019-04-06T03:03:33.383Z,23.67
2019-04-06T03:06:37.350Z,21.80
2019-04-06T03:09:41.105Z,22.17
2019-04-06T03:12:44.860Z,22.07
2019-04-06T03:15:48.748Z,22.70
2019-04-06T03:18:52.850Z,23.50
2019-04-06T03:21:56.567Z,21.60
2019-04-06T03:25:00.321Z,21.13
2019-04-06T03:28:04.209Z,23.27
2019-04-06T03:31:08.236Z,20.90
2019-04-06T03:34:12.374Z,20.27
2019-04-06T03:37:16.161Z,22.00
2019-04-06T03:40:19.902Z,20.20
2019-04-06T03:43:23.618Z,21.53
2019-04-06T03:46:27.276Z,21.90
2019-04-06T03:49:31.011Z,22.17
2019-04-06T03:52:34.998Z,22.27
2019-04-06T03:55:39.525Z,20.35
2019-04-06T03:58:43.636Z,19.77
2019-04-06T04:01:47.695Z,19.52
2019-04-06T04:04:51.475Z,19.53
2019-04-06T04:07:55.502Z,18.87
2019-04-06T04:10:59.237Z,18.60
2019-04-06T04:14:03.328Z,21.30
2019-04-06T04:17:07.146Z,19.97
2019-04-06T04:20:11.151Z,21.40
2019-04-06T04:23:14.918Z,20.97
2019-04-06T04:26:18.678Z,22.47
2019-04-06T04:29:22.611Z,24.27
2019-04-06T04:32:26.840Z,23.53
2019-04-06T04:35:30.561Z,23.23
2019-04-06T04:38:34.328Z,24.77
2019-04-06T04:41:39.798Z,23.13
2019-04-06T04:44:43.908Z,22.60
2019-04-06T04:47:50.026Z,23.23
2019-04-06T04:50:53.222Z,22.47
2019-04-06T04:53:57.179Z,22.33
2019-04-06T04:57:00.981Z,24.33
2019-04-06T05:00:05.647Z,22.93
2019-04-06T05:03:09.363Z,23.13
2019-04-06T05:06:13.053Z,23.77
2019-04-06T05:09:17.082Z,24.37
2019-04-06T05:12:20.977Z,23.47
2019-04-06T05:16:05.187Z,23.03
2019-04-06T05:19:08.901Z,22.93
2019-04-06T05:22:12.949Z,25.00
2019-04-06T05:25:16.810Z,24.37
2019-04-06T05:28:20.570Z,25.00
2019-04-06T05:31:24.483Z,24.20
2019-04-06T05:34:28.174Z,23.00
2019-04-06T05:37:31.922Z,26.07
2019-04-06T05:40:35.621Z,22.37
2019-04-06T05:43:39.329Z,23.80
2019-04-06T05:46:43.114Z,26.10
2019-04-06T05:49:47.384Z,24.70
2019-04-06T05:52:51.078Z,26.53
2019-04-06T05:55:54.842Z,23.67
2019-04-06T05:58:58.646Z,25.53
2019-04-06T06:02:02.810Z,25.47
2019-04-06T06:05:08.561Z,24.93
2019-04-06T06:08:13.118Z,28.07
2019-04-06T06:11:16.866Z,24.80
2019-04-06T06:14:20.814Z,25.17
2019-04-06T06:17:24.649Z,23.43
2019-04-06T06:20:28.385Z,26.73
2019-04-06T06:23:32.292Z,27.10
2019-04-06T06:26:36.174Z,26.93
2019-04-06T06:29:39.863Z,28.37
2019-04-06T06:32:43.714Z,25.30
2019-04-06T06:35:47.517Z,27.30
2019-04-06T06:38:51.354Z,27.50
2019-04-06T06:41:55.178Z,28.10
2019-04-06T06:44:58.991Z,27.77
2019-04-06T06:48:02.748Z,28.93
2019-04-06T06:51:06.576Z,28.07
2019-04-06T06:54:10.289Z,26.93
2019-04-06T06:57:13.975Z,27.00
2019-04-06T07:00:17.750Z,27.97
2019-04-06T07:03:21.503Z,27.33
2019-04-06T07:06:25.253Z,28.20
2019-04-06T07:09:29.549Z,28.30
2019-04-06T07:12:33.253Z,28.77
2019-04-06T07:15:36.916Z,27.13
2019-04-06T07:18:40.824Z,26.55
2019-04-06T07:21:44.668Z,25.48
2019-04-06T07:24:48.462Z,28.50
2019-04-06T07:27:52.372Z,28.12
2019-04-06T07:30:56.134Z,29.35
2019-04-06T07:33:59.937Z,27.30
2019-04-06T07:37:03.690Z,28.00
2019-04-06T07:40:08.669Z,28.07
2019-04-06T07:43:12.666Z,27.40
2019-04-06T07:46:16.526Z,26.10
2019-04-06T07:49:20.274Z,28.73
2019-04-06T07:52:24.910Z,28.90
2019-04-06T07:55:28.601Z,29.47
2019-04-06T07:58:32.378Z,27.37
2019-04-06T08:01:36.045Z,28.73
2019-04-06T08:04:39.838Z,29.57
2019-04-06T08:07:43.577Z,29.80
2019-04-06T08:10:47.229Z,29.63
2019-04-06T08:13:50.959Z,27.67
2019-04-06T08:16:54.773Z,27.63
2019-04-06T08:19:58.466Z,28.63
2019-04-06T08:23:02.180Z,29.43
2019-04-06T08:26:05.923Z,27.40
2019-04-06T08:29:09.597Z,29.37
2019-04-06T08:32:13.320Z,29.63
2019-04-06T08:35:25.089Z,28.20
2019-04-06T08:38:22.702Z,30.03
2019-04-06T08:41:26.405Z,27.43
2019-04-06T08:44:30.165Z,28.40
2019-04-06T08:47:34.274Z,27.48
2019-04-06T08:50:38.058Z,28.10
2019-04-06T08:53:41.987Z,27.80
2019-04-06T08:56:45.768Z,28.00
2019-04-06T08:59:49.526Z,29.43
2019-04-06T09:02:53.217Z,28.67
2019-04-06T09:05:56.955Z,27.70
2019-04-06T09:09:00.922Z,27.87
2019-04-06T09:12:04.801Z,29.60
2019-04-06T09:15:09.368Z,27.00
2019-04-06T09:18:13.075Z,28.27
2019-04-06T09:21:16.799Z,29.27
2019-04-06T09:24:20.710Z,25.73
2019-04-06T09:27:24.405Z,28.60
2019-04-06T09:30:30.517Z,27.90
2019-04-06T09:33:34.287Z,27.17
2019-04-06T09:36:38.014Z,28.63
2019-04-06T09:39:41.713Z,26.37
2019-04-06T09:42:45.431Z,25.40
2019-04-06T09:46:06.308Z,26.23
2019-04-06T09:49:32.933Z,26.10
2019-04-06T09:52:47.142Z,25.33
2019-04-06T09:56:17.165Z,24.70
2019-04-06T09:59:35.888Z,24.40
2019-04-06T10:03:10.241Z,25.80
2019-04-06T10:06:26.198Z,24.37
2019-04-06T10:09:45.045Z,24.53
2019-04-06T10:13:06.714Z,22.90
2019-04-06T10:16:21.983Z,21.60
2019-04-06T10:19:40.327Z,22.50
2019-04-06T10:22:52.985Z,21.57
2019-04-06T10:26:25.422Z,21.30
2019-04-06T10:29:48.867Z,22.37
2019-04-06T10:32:57.637Z,22.13
2019-04-06T10:36:23.396Z,21.37
2019-04-06T10:39:34.081Z,23.17
2019-04-06T10:42:51.868Z,19.60
2019-04-06T10:46:12.537Z,22.83
2019-04-06T10:49:26.389Z,22.90
2019-04-06T10:52:58.243Z,21.83
2019-04-06T10:56:30.279Z,22.10
2019-04-06T10:59:45.181Z,19.67
2019-04-06T11:02:59.781Z,22.27
2019-04-06T11:06:14.526Z,21.33
2019-04-06T11:09:37.411Z,21.27
2019-04-06T11:12:52.229Z,20.87
2019-04-06T11:16:13.118Z,20.77
2019-04-06T11:19:32.748Z,20.97
2019-04-06T11:22:49.417Z,21.80
2019-04-06T11:26:21.261Z,21.50
2019-04-06T11:29:29.526Z,20.47
2019-04-06T11:32:45.171Z,21.67
2019-04-06T11:35:57.222Z,21.67
2019-04-06T11:39:18.902Z,20.07
2019-04-06T11:42:44.885Z,21.57
2019-04-06T11:46:23.502Z,22.75
2019-04-06T11:49:38.457Z,21.80
2019-04-06T11:53:04.314Z,20.27
2019-04-06T11:56:27.093Z,22.03
2019-04-06T11:59:47.698Z,22.13
2019-04-06T12:02:56.364Z,22.57
2019-04-06T12:06:07.189Z,23.20
2019-04-06T12:09:22.595Z,22.37
2019-04-06T12:12:45.394Z,22.47
2019-04-06T12:16:07.368Z,22.87
2019-04-06T12:19:15.669Z,21.43
2019-04-06T12:22:27.656Z,23.63
2019-04-06T12:26:02.601Z,22.58
2019-04-06T12:29:17.211Z,23.40
2019-04-06T12:32:45.318Z,22.10
2019-04-06T12:36:07.081Z,22.60
2019-04-06T12:39:36.094Z,22.37
2019-04-06T12:42:45.178Z,21.37
2019-04-06T12:46:12.543Z,22.03
2019-04-06T12:49:35.417Z,21.93
2019-04-06T12:53:07.075Z,20.60
2019-04-06T12:56:22.647Z,20.03
2019-04-06T12:59:43.530Z,21.07
2019-04-06T13:03:24.347Z,21.47
2019-04-06T13:07:00.184Z,20.67
2019-04-06T13:10:19.081Z,19.40
2019-04-06T13:13:42.074Z,20.33
2019-04-06T13:17:02.642Z,20.30
2019-04-06T13:20:15.185Z,18.57
2019-04-06T13:23:37.182Z,18.23
2019-04-06T13:27:12.132Z,17.90
2019-04-06T13:30:26.214Z,18.40
2019-04-06T13:33:46.534Z,18.50
2019-04-06T13:37:00.231Z,17.37
2019-04-06T13:40:21.914Z,16.47
2019-04-06T13:43:38.647Z,16.27
2019-04-06T13:47:07.981Z,17.27
2019-04-06T13:50:17.785Z,16.43
2019-04-06T13:53:40.633Z,15.77
2019-04-06T13:57:03.695Z,15.00
2019-04-06T14:00:17.768Z,15.47
2019-04-06T14:03:55.655Z,15.20
2019-04-06T14:07:18.442Z,15.33
2019-04-06T14:10:43.734Z,14.17
2019-04-06T14:13:54.444Z,12.40
2019-04-06T14:17:08.684Z,13.37
2019-04-06T14:20:32.603Z,13.63
2019-04-06T14:23:42.455Z,15.87
2019-04-06T14:27:05.027Z,14.50
2019-04-06T14:30:21.282Z,12.97
2019-04-06T14:33:45.441Z,14.30
2019-04-06T14:37:16.394Z,14.30
2019-04-06T14:40:33.083Z,13.43
2019-04-06T14:43:48.870Z,13.57
2019-04-06T14:47:03.146Z,13.73
2019-04-06T14:50:14.451Z,13.17
2019-04-06T14:53:27.126Z,14.37
2019-04-06T14:56:37.290Z,14.60
2019-04-06T14:59:55.889Z,14.80
2019-04-06T15:03:19.062Z,15.87
2019-04-06T15:07:09.552Z,14.60
2019-04-06T15:10:25.434Z,14.57
2019-04-06T15:13:44.281Z,14.97
2019-04-06T15:17:06.345Z,14.70
2019-04-06T15:20:17.119Z,14.20
2019-04-06T15:23:30.329Z,14.43
2019-04-06T15:26:59.101Z,13.80
2019-04-06T15:30:22.895Z,13.83
2019-04-06T15:33:35.818Z,13.63
2019-04-06T15:36:49.014Z,14.10
2019-04-06T15:40:05.457Z,15.03
2019-04-06T15:43:40.411Z,13.30
2019-04-06T15:46:57.573Z,13.70
2019-04-06T15:50:19.193Z,13.50
2019-04-06T15:53:39.856Z,13.93
2019-04-06T15:57:05.555Z,13.30
2019-04-06T16:00:44.342Z,13.80
2019-04-06T16:04:08.418Z,13.27
2019-04-06T16:07:37.274Z,14.00
2019-04-06T16:10:58.937Z,14.63
2019-04-06T16:14:25.037Z,15.07
2019-04-06T16:17:36.020Z,15.83
2019-04-06T16:21:03.422Z,16.90
2019-04-06T16:24:26.974Z,16.47
2019-04-06T16:27:48.287Z,17.47
2019-04-06T16:31:01.399Z,15.87
2019-04-06T16:34:13.207Z,16.03
2019-04-06T16:37:25.961Z,18.30
2019-04-06T16:40:54.637Z,16.60
2019-04-06T16:44:20.127Z,16.37
2019-04-06T16:47:41.370Z,17.90
2019-04-06T16:51:00.108Z,17.00
2019-04-06T16:54:12.182Z,17.97
2019-04-06T16:57:41.399Z,18.00
2019-04-06T17:01:00.653Z,16.60
2019-04-06T17:04:26.887Z,17.53
2019-04-06T17:07:48.246Z,16.57
2019-04-06T17:11:11.086Z,16.73
2019-04-06T17:14:27.400Z,16.17
2019-04-06T17:17:48.057Z,16.97
2019-04-06T17:21:13.754Z,17.93
2019-04-06T17:24:28.242Z,17.13
2019-04-06T17:27:40.742Z,16.13
2019-04-06T17:31:03.910Z,17.17
2019-04-06T17:34:29.592Z,19.23
2019-04-06T17:37:42.098Z,18.40
2019-04-06T17:40:51.070Z,17.23
2019-04-06T17:44:03.819Z,15.83
2019-04-06T17:47:25.547Z,16.20
2019-04-06T17:50:55.556Z,16.30
2019-04-06T17:54:18.757Z,16.73
2019-04-06T17:57:33.607Z,16.07
2019-04-06T18:00:50.356Z,15.10
2019-04-06T18:04:03.017Z,15.87
2019-04-06T18:07:32.305Z,15.40
2019-04-06T18:10:54.689Z,15.87
2019-04-06T18:13:58.540Z,16.03
2019-04-06T18:17:02.314Z,15.43
2019-04-06T18:20:07.598Z,14.37
2019-04-06T18:23:11.384Z,15.80
2019-04-06T18:26:15.544Z,15.83
2019-04-06T18:29:19.449Z,16.13
2019-04-06T18:33:00.714Z,15.93
2019-04-06T18:36:00.608Z,15.45
2019-04-06T18:39:08.509Z,14.17
2019-04-06T18:42:12.290Z,16.20
2019-04-06T18:45:16.592Z,15.33
2019-04-06T18:48:20.491Z,15.97
2019-04-06T18:51:24.251Z,15.70
2019-04-06T18:54:27.953Z,16.43
2019-04-06T18:57:32.181Z,15.50
2019-04-06T19:00:36.723Z,15.10
2019-04-06T19:03:40.461Z,16.07
2019-04-06T19:06:45.454Z,15.23
2019-04-06T19:09:49.181Z,15.30
2019-04-06T19:12:53.054Z,17.30
2019-04-06T19:15:56.828Z,16.37
2019-04-06T19:19:00.602Z,16.40
2019-04-06T19:22:04.455Z,16.87
2019-04-06T19:25:08.534Z,15.90
2019-04-06T19:28:12.309Z,16.30
2019-04-06T19:31:16.082Z,16.60
2019-04-06T19:34:19.945Z,15.07
2019-04-06T19:37:23.831Z,16.37
2019-04-06T19:40:28.598Z,16.67
2019-04-06T19:43:32.342Z,16.90
2019-04-06T19:46:36.307Z,16.40
2019-04-06T19:49:40.338Z,17.27
2019-04-06T19:52:44.426Z,15.03
2019-04-06T19:55:48.461Z,16.27
2019-04-06T19:58:52.429Z,16.17
2019-04-06T20:01:56.608Z,16.20
2019-04-06T20:05:00.483Z,17.33
2019-04-06T20:08:04.761Z,16.70
2019-04-06T20:11:09.029Z,17.43
2019-04-06T20:14:13.079Z,16.73
2019-04-06T20:17:16.994Z,17.02
2019-04-06T20:20:21.195Z,17.10
2019-04-06T20:23:27.014Z,17.37
2019-04-06T20:26:32.235Z,17.67
2019-04-06T20:29:36.714Z,16.93
2019-04-06T20:32:40.699Z,17.03
2019-04-06T20:35:44.521Z,17.53
2019-04-06T20:38:48.526Z,17.33
2019-04-06T20:41:52.991Z,17.40
2019-04-06T20:44:56.877Z,17.07
2019-04-06T20:48:00.851Z,16.87
2019-04-06T20:51:05.005Z,17.60
2019-04-06T20:54:09.250Z,16.82
2019-04-06T20:57:13.165Z,16.40
2019-04-06T21:00:17.766Z,16.90
2019-04-06T21:03:21.709Z,16.95
2019-04-06T21:06:25.684Z,17.17
2019-04-06T21:09:29.466Z,17.87
2019-04-06T21:12:33.428Z,17.00
2019-04-06T21:15:37.669Z,17.30
2019-04-06T21:18:41.902Z,17.90
2019-04-06T21:21:47.079Z,17.37
2019-04-06T21:24:51.491Z,17.77
2019-04-06T21:27:55.800Z,17.37
2019-04-06T21:30:59.797Z,18.20
2019-04-06T21:34:11.561Z,18.30
2019-04-06T21:37:10.183Z,17.97
2019-04-06T21:40:14.744Z,17.27
2019-04-06T21:43:19.158Z,17.37
2019-04-06T21:46:23.532Z,17.67
2019-04-06T21:49:27.960Z,17.40
2019-04-06T21:52:31.958Z,17.77
2019-04-06T21:55:35.784Z,16.83
2019-04-06T21:58:40.420Z,18.70
2019-04-06T22:01:45.023Z,18.27
2019-04-06T22:04:49.718Z,18.67
2019-04-06T22:07:54.770Z,16.93
2019-04-06T22:10:58.569Z,17.67
2019-04-06T22:14:02.423Z,15.85
2019-04-06T22:17:07.415Z,17.07
2019-04-06T22:20:12.333Z,19.07
2019-04-06T22:23:16.285Z,17.67
2019-04-06T22:26:20.007Z,18.40
2019-04-06T22:29:23.882Z,18.60
2019-04-06T22:32:27.662Z,18.27
2019-04-06T22:35:31.399Z,18.03
2019-04-06T22:38:35.135Z,17.95
2019-04-06T22:41:39.286Z,17.70
2019-04-06T22:44:42.994Z,18.37
2019-04-06T22:47:47.290Z,17.43
2019-04-06T22:50:50.994Z,18.23
2019-04-06T22:53:54.718Z,17.53
2019-04-06T22:56:58.822Z,18.20
2019-04-06T23:00:02.524Z,17.57
2019-04-06T23:03:18.462Z,18.97
2019-04-06T23:06:27.289Z,17.40
2019-04-06T23:09:30.998Z,17.87
2019-04-06T23:12:34.697Z,17.33
2019-04-06T23:15:39.378Z,17.30
2019-04-06T23:18:43.414Z,17.57
2019-04-06T23:21:47.560Z,16.93
2019-04-06T23:24:51.679Z,17.30
2019-04-06T23:27:55.664Z,16.87
2019-04-06T23:30:59.407Z,17.73
2019-04-06T23:34:03.459Z,16.97
2019-04-06T23:37:07.282Z,15.90
2019-04-06T23:40:11.255Z,15.90
2019-04-06T23:43:15.073Z,16.60
2019-04-06T23:46:19.015Z,16.23
2019-04-06T23:49:23.529Z,16.27
2019-04-06T23:52:27.470Z,16.93
2019-04-06T23:55:32.698Z,16.23
2019-04-06T23:58:36.486Z,16.77
